Impacts TAF Board
For situational awareness. Not to be used for flight planning purposes.
IDs:

KRSL - Russell Muni, KS, US

Issued at 0520 UTC 19 Aug 2019
Updated at 0544 UTC 19 Aug 2019
Potential Impact None Slight Moderate High
Time<<19/18Z 19/19Z 19/20Z 19/21Z 19/22Z 19/23Z 20/00Z 20/01Z 20/02Z 20/03Z 20/04Z 20/05Z 20/06Z>>
Type PRVL PRVL PRVL PRVL PRVL PRVL PRVL PRVL PRVL PRVL PRVL PRVL
VIS >6 >6 >6 >6 >6 >6 >6 >6 >6 >6 >6 >6
CIG -- -- -- -- -- -- -- -- -- -- -- --
Cover SCT SCT SCT SCT SCT SCT SCT SCT SCT SCT SCT SCT
FltCat VFR VFR VFR VFR VFR VFR VFR VFR VFR VFR VFR VFR
WX -- -- -- -- -- -- -- -- -- -- -- --
WDir 130 130 130 130 130 130 130 160 160 160 160 160
WSpd 8 8 8 8 8 8 8 5 5 5 5 5
WGst -- -- -- -- -- -- -- -- -- -- -- --
Raw TAF
KRSL 190520Z 1906/2006 10008KT P6SM SKC
  FM190900 10006KT P6SM SCT015
  TEMPO 1910/1914 2SM BR BKN015
  FM191500 11007KT P6SM SCT035
  FM191800 13008KT P6SM SCT050
  FM200100 16005KT P6SM SCT250


METAR Board
Radar Display
Forecast Discussion
For situational awareness. Not to be used for flight planning purposes.